Cobbs Creek, Virginia
Current Conditions -  °F | °C
As of 4:35 PM on Friday 24 Oct 2014 (Local Time) from KW75 Reporting Station
Clear Clear  
Wind Chill: 66°   Ceiling: Unl
Heat Index: 66°   Visibility: 10mi
Dew Point: 46°   Wind: 6mph
Humidity: 49%   Direction: 320°NW
Pressure: 29.9"   Gusts: NA
Location:  37.51°N, 76.4°W
Report Text: KW75 242035Z AUTO 32005KT 10SM CLR 19/08 A2990 RMK AO1 T01900080
Loading
Personal Weather Stations






























Interactive Weather Map New forecast layout! Learn more

10-Day Weather Forecast

Advertisements
Track Severe Weather on mobile